createdAt,value
2023-01-30T05:00:32.583Z,11.90
2023-01-30T05:01:33.669Z,10.20
2023-01-30T05:02:33.518Z,10.50
2023-01-30T05:03:33.524Z,9.30
2023-01-30T05:04:33.507Z,11.20
2023-01-30T05:05:33.499Z,10.10
2023-01-30T05:06:33.489Z,11.80
2023-01-30T05:07:33.475Z,10.80
2023-01-30T05:08:33.475Z,10.80
2023-01-30T05:09:33.464Z,10.00
2023-01-30T05:10:33.442Z,14.80
2023-01-30T05:11:33.450Z,8.40
2023-01-30T05:12:33.426Z,8.10
2023-01-30T05:13:33.438Z,9.60
2023-01-30T05:14:33.391Z,7.50
2023-01-30T05:15:33.392Z,10.90
2023-01-30T05:16:33.376Z,9.90
2023-01-30T05:17:33.402Z,13.60
2023-01-30T05:18:33.381Z,11.50
2023-01-30T05:19:33.349Z,9.90
2023-01-30T05:20:33.348Z,10.70
2023-01-30T05:21:33.329Z,10.80
2023-01-30T05:22:33.321Z,10.10
2023-01-30T05:23:33.718Z,11.00
2023-01-30T05:24:33.297Z,13.70
2023-01-30T05:25:33.297Z,11.00
2023-01-30T05:26:33.276Z,11.30
2023-01-30T05:27:33.262Z,11.90
2023-01-30T05:28:33.247Z,10.50
2023-01-30T05:29:33.255Z,9.90
2023-01-30T05:30:33.256Z,9.00
2023-01-30T05:31:33.275Z,14.10
2023-01-30T05:32:33.202Z,10.50
2023-01-30T05:33:33.215Z,11.90
2023-01-30T05:34:33.189Z,8.70
2023-01-30T05:35:33.173Z,12.00
2023-01-30T05:36:33.159Z,12.80
2023-01-30T05:37:33.157Z,9.40
2023-01-30T05:38:33.160Z,11.20
2023-01-30T05:39:33.149Z,10.20
2023-01-30T05:40:33.128Z,11.50
2023-01-30T05:41:33.123Z,11.50
2023-01-30T05:42:33.090Z,10.30
2023-01-30T05:43:33.099Z,13.60
2023-01-30T05:44:33.096Z,9.00
2023-01-30T05:45:33.067Z,11.90
2023-01-30T05:46:33.081Z,10.30
2023-01-30T05:47:33.051Z,9.40
2023-01-30T05:48:33.034Z,8.70
2023-01-30T05:49:33.021Z,7.80
2023-01-30T05:50:33.023Z,9.20
2023-01-30T05:51:33.005Z,11.50
2023-01-30T05:52:32.993Z,8.90
2023-01-30T05:53:32.986Z,12.60
2023-01-30T05:54:32.968Z,11.80
2023-01-30T05:55:32.965Z,10.10
2023-01-30T05:56:32.955Z,10.10
2023-01-30T05:57:32.933Z,12.00
2023-01-30T05:58:32.938Z,11.40
2023-01-30T05:59:32.920Z,11.40
2023-01-30T06:00:32.926Z,6.90
2023-01-30T06:01:32.897Z,11.90
2023-01-30T06:02:32.894Z,12.70
2023-01-30T06:03:32.924Z,12.20
2023-01-30T06:04:32.875Z,9.00
2023-01-30T06:05:32.869Z,12.50
2023-01-30T06:06:32.849Z,10.20
2023-01-30T06:07:32.826Z,10.70
2023-01-30T06:08:32.834Z,9.10
2023-01-30T06:09:32.802Z,11.10
2023-01-30T06:10:32.828Z,7.60
2023-01-30T06:11:32.813Z,9.30
2023-01-30T06:12:32.792Z,10.70
2023-01-30T06:13:32.762Z,12.00
2023-01-30T06:14:32.775Z,9.80
2023-01-30T06:15:32.750Z,12.60
2023-01-30T06:16:32.835Z,8.00
2023-01-30T06:17:32.760Z,11.60
2023-01-30T06:18:32.719Z,10.90
2023-01-30T06:19:32.715Z,12.10
2023-01-30T06:20:32.693Z,8.40
2023-01-30T06:21:32.702Z,10.00
2023-01-30T06:22:32.685Z,11.60
2023-01-30T06:23:32.665Z,12.20
2023-01-30T06:24:32.661Z,12.10
2023-01-30T06:25:32.632Z,11.60
2023-01-30T06:26:32.643Z,9.90
2023-01-30T06:27:32.629Z,11.70
2023-01-30T06:28:32.615Z,13.10
2023-01-30T06:29:32.611Z,8.20
2023-01-30T06:30:32.618Z,12.00
2023-01-30T06:31:32.540Z,11.70
2023-01-30T06:32:32.573Z,10.50
2023-01-30T06:33:32.552Z,9.30
2023-01-30T06:34:32.557Z,10.80
2023-01-30T06:35:32.530Z,9.90
2023-01-30T06:36:32.494Z,10.00
2023-01-30T06:37:32.462Z,9.90
2023-01-30T06:38:32.507Z,12.60
2023-01-30T06:39:32.491Z,9.40
2023-01-30T06:40:32.460Z,12.40
2023-01-30T06:41:32.426Z,11.00
2023-01-30T06:42:32.464Z,8.60
2023-01-30T06:43:32.453Z,10.50
2023-01-30T06:44:32.396Z,8.00
2023-01-30T06:45:32.381Z,15.10
2023-01-30T06:46:32.444Z,7.20
2023-01-30T06:47:32.384Z,8.60
2023-01-30T06:48:32.356Z,9.20
2023-01-30T06:49:32.338Z,11.10
2023-01-30T06:50:32.340Z,10.60
2023-01-30T06:51:32.315Z,8.50
2023-01-30T06:52:32.304Z,9.00
2023-01-30T06:53:32.319Z,9.20
2023-01-30T06:54:32.280Z,11.50
2023-01-30T06:55:32.284Z,11.00
2023-01-30T06:56:32.265Z,10.20
2023-01-30T06:57:32.250Z,7.50
2023-01-30T06:58:32.253Z,9.80
2023-01-30T06:59:32.237Z,10.80
2023-01-30T07:00:32.229Z,8.80
2023-01-30T07:01:32.248Z,7.50
2023-01-30T07:02:32.198Z,8.70
2023-01-30T07:03:32.233Z,7.80
2023-01-30T07:04:32.205Z,9.90
2023-01-30T07:05:32.179Z,11.60
2023-01-30T07:06:32.157Z,8.40
2023-01-30T07:07:32.139Z,10.10
2023-01-30T07:08:32.155Z,8.40
2023-01-30T07:09:32.132Z,9.20
2023-01-30T07:10:32.110Z,11.10
2023-01-30T07:11:32.094Z,9.90
2023-01-30T07:12:32.098Z,7.90
2023-01-30T07:13:32.080Z,7.20
2023-01-30T07:14:32.075Z,7.30
2023-01-30T07:15:32.058Z,9.30
2023-01-30T07:16:32.100Z,7.70
2023-01-30T07:17:32.051Z,7.00
2023-01-30T07:18:32.039Z,6.00
2023-01-30T07:19:32.054Z,6.40
2023-01-30T07:20:32.012Z,8.20
2023-01-30T07:21:31.995Z,7.60
2023-01-30T07:22:31.995Z,8.30
2023-01-30T07:23:31.982Z,8.60
2023-01-30T07:24:31.977Z,5.70
2023-01-30T07:25:31.976Z,7.20
2023-01-30T07:26:31.982Z,7.00
2023-01-30T07:27:31.929Z,6.90
2023-01-30T07:28:31.915Z,5.90
2023-01-30T07:29:31.914Z,9.90
2023-01-30T07:30:31.973Z,8.30
2023-01-30T07:31:31.910Z,13.00
2023-01-30T07:32:31.909Z,8.90
2023-01-30T07:33:31.909Z,8.80
2023-01-30T07:34:31.857Z,8.40
2023-01-30T07:35:31.941Z,7.30
2023-01-30T07:36:31.842Z,6.90
2023-01-30T07:37:31.828Z,9.60
2023-01-30T07:38:31.822Z,7.00
2023-01-30T07:39:31.805Z,9.60
2023-01-30T07:40:31.860Z,11.40
2023-01-30T07:41:31.790Z,11.60
2023-01-30T07:42:31.773Z,8.00
2023-01-30T07:43:31.777Z,7.10
2023-01-30T07:44:31.801Z,7.60
2023-01-30T07:45:31.754Z,4.90
2023-01-30T07:46:31.745Z,9.90
2023-01-30T07:47:31.717Z,7.10
2023-01-30T07:48:31.705Z,3.80
2023-01-30T07:49:31.691Z,7.20
2023-01-30T07:50:31.703Z,5.40
2023-01-30T07:51:31.688Z,10.30
2023-01-30T07:52:31.682Z,7.30
2023-01-30T07:53:31.654Z,8.90
2023-01-30T07:54:31.700Z,6.80
2023-01-30T07:55:31.641Z,7.50
2023-01-30T07:56:31.639Z,5.20
2023-01-30T07:57:31.672Z,6.20
2023-01-30T07:58:31.614Z,4.40
2023-01-30T07:59:31.593Z,5.80
2023-01-30T08:00:31.592Z,7.70
2023-01-30T08:01:31.693Z,5.10
2023-01-30T08:02:31.557Z,5.50
2023-01-30T08:03:31.543Z,8.20
2023-01-30T08:04:31.571Z,7.40
2023-01-30T08:05:31.553Z,8.20
2023-01-30T08:06:31.547Z,4.70
2023-01-30T08:07:31.529Z,6.70
2023-01-30T08:08:31.507Z,4.10
2023-01-30T08:09:31.481Z,5.20
2023-01-30T08:10:31.464Z,4.10
2023-01-30T08:11:31.464Z,6.00
2023-01-30T08:12:31.622Z,4.50
2023-01-30T08:13:31.426Z,3.10
2023-01-30T08:14:31.425Z,5.40
2023-01-30T08:15:31.418Z,5.10
2023-01-30T08:16:31.448Z,5.10
2023-01-30T08:17:31.409Z,4.60
2023-01-30T08:18:31.437Z,2.30
2023-01-30T08:19:31.371Z,4.60
2023-01-30T08:20:31.413Z,5.70
2023-01-30T08:21:31.360Z,4.00
2023-01-30T08:22:31.356Z,2.90
2023-01-30T08:23:31.379Z,4.00
2023-01-30T08:24:31.323Z,4.30
2023-01-30T08:25:31.417Z,5.00
2023-01-30T08:26:31.348Z,3.50
2023-01-30T08:27:31.292Z,2.20
2023-01-30T08:28:31.294Z,4.40
2023-01-30T08:29:31.276Z,3.50
2023-01-30T08:30:31.258Z,3.00
2023-01-30T08:31:31.268Z,2.30
2023-01-30T08:32:31.472Z,3.80
2023-01-30T08:33:31.260Z,4.40
2023-01-30T08:34:31.214Z,2.80
2023-01-30T08:35:31.286Z,3.90
2023-01-30T08:36:31.190Z,2.20
2023-01-30T08:37:31.171Z,3.40
2023-01-30T08:38:31.179Z,2.80
2023-01-30T08:39:31.175Z,2.80
2023-01-30T08:40:31.163Z,1.70
2023-01-30T08:41:31.146Z,5.10
2023-01-30T08:42:31.164Z,2.20
2023-01-30T08:43:31.123Z,5.80
2023-01-30T08:44:31.125Z,2.70
2023-01-30T08:45:31.099Z,3.00
2023-01-30T08:46:31.121Z,2.80
2023-01-30T08:47:31.059Z,2.80
2023-01-30T08:48:43.312Z,4.50
2023-01-30T08:49:31.067Z,1.40
2023-01-30T08:50:31.054Z,5.80
2023-01-30T08:51:31.033Z,4.90
2023-01-30T08:52:31.027Z,2.30
2023-01-30T08:53:31.020Z,3.00
2023-01-30T08:54:33.222Z,2.10
2023-01-30T08:55:31.003Z,2.60
2023-01-30T08:56:30.965Z,3.80
2023-01-30T08:57:30.965Z,2.60
2023-01-30T08:58:30.996Z,3.50
2023-01-30T08:59:30.966Z,4.00
2023-01-30T09:00:30.938Z,2.60
2023-01-30T09:01:30.984Z,4.50
2023-01-30T09:02:31.004Z,5.70
2023-01-30T09:03:30.933Z,2.60
2023-01-30T09:04:30.893Z,3.00
2023-01-30T09:05:30.869Z,3.10
2023-01-30T09:06:30.873Z,3.40
2023-01-30T09:07:30.862Z,3.20
2023-01-30T09:08:30.860Z,4.00
2023-01-30T09:09:30.835Z,2.40
2023-01-30T09:10:30.862Z,0.90
2023-01-30T09:11:30.847Z,4.50
2023-01-30T09:12:30.827Z,4.50
2023-01-30T09:13:30.787Z,2.40
2023-01-30T09:14:30.791Z,2.20
2023-01-30T09:15:30.768Z,3.40
2023-01-30T09:16:30.782Z,2.30
2023-01-30T09:17:30.751Z,2.30
2023-01-30T09:18:30.732Z,1.80
2023-01-30T09:19:30.738Z,4.70
2023-01-30T09:20:30.743Z,3.40
2023-01-30T09:21:30.693Z,2.20
2023-01-30T09:22:30.707Z,1.60
2023-01-30T09:23:30.687Z,2.20
2023-01-30T09:24:30.669Z,3.20
2023-01-30T09:25:30.686Z,2.00
2023-01-30T09:26:30.672Z,1.90
2023-01-30T09:27:30.651Z,1.80
2023-01-30T09:28:30.626Z,3.40
2023-01-30T09:29:30.652Z,2.70
2023-01-30T09:30:30.723Z,2.20
2023-01-30T09:31:30.752Z,0.80
2023-01-30T09:32:30.583Z,2.00
2023-01-30T09:33:30.591Z,3.10
2023-01-30T09:34:30.559Z,1.30
2023-01-30T09:35:30.569Z,1.90
2023-01-30T09:36:30.572Z,1.80
2023-01-30T09:37:30.533Z,1.40
2023-01-30T09:38:30.516Z,2.50
2023-01-30T09:39:30.510Z,1.50
2023-01-30T09:40:30.513Z,2.00
2023-01-30T09:41:30.499Z,2.70
2023-01-30T09:42:30.483Z,1.00
2023-01-30T09:43:30.461Z,2.60
2023-01-30T09:44:30.459Z,3.50
2023-01-30T09:45:30.443Z,2.70
2023-01-30T09:46:30.552Z,2.30
2023-01-30T09:47:30.421Z,3.60
2023-01-30T09:48:30.421Z,2.00
2023-01-30T09:49:30.409Z,3.10
2023-01-30T09:50:30.394Z,2.00
2023-01-30T09:51:30.421Z,1.60
2023-01-30T09:52:30.360Z,2.70
2023-01-30T09:53:30.345Z,2.30
2023-01-30T09:54:30.352Z,2.50
2023-01-30T09:55:30.340Z,3.70
2023-01-30T09:56:30.334Z,2.20
2023-01-30T09:57:30.308Z,2.90
2023-01-30T09:58:30.302Z,3.50
2023-01-30T09:59:30.289Z,2.60
2023-01-30T10:00:30.293Z,0.90
2023-01-30T10:01:30.336Z,3.10
2023-01-30T10:02:30.269Z,1.00
2023-01-30T10:03:30.315Z,5.80
2023-01-30T10:04:30.286Z,2.30
2023-01-30T10:05:30.238Z,4.90
2023-01-30T10:06:30.211Z,2.50
2023-01-30T10:07:30.293Z,6.50
2023-01-30T10:08:30.201Z,2.40
2023-01-30T10:09:30.199Z,2.70
2023-01-30T10:10:30.163Z,3.70
2023-01-30T10:11:30.171Z,0.80
2023-01-30T10:12:30.159Z,1.20
2023-01-30T10:13:30.165Z,2.80
2023-01-30T10:14:30.143Z,2.30
2023-01-30T10:15:30.126Z,0.90
2023-01-30T10:16:30.135Z,2.80
2023-01-30T10:17:34.187Z,2.80
2023-01-30T10:18:30.111Z,3.20
2023-01-30T10:19:35.987Z,1.70
2023-01-30T10:20:30.074Z,3.30
2023-01-30T10:21:30.048Z,2.30
2023-01-30T10:22:30.035Z,3.60
2023-01-30T10:23:30.041Z,0.50
2023-01-30T10:24:30.021Z,3.30
2023-01-30T10:25:30.037Z,4.50
2023-01-30T10:26:30.067Z,1.20
2023-01-30T10:27:29.988Z,3.20
2023-01-30T10:28:29.973Z,3.40
2023-01-30T10:29:29.969Z,1.70
2023-01-30T10:30:30.030Z,3.80
2023-01-30T10:31:29.956Z,2.40
2023-01-30T10:32:29.949Z,2.60
2023-01-30T10:33:29.943Z,1.70
2023-01-30T10:34:29.925Z,3.40
2023-01-30T10:35:29.910Z,5.00
2023-01-30T10:36:29.892Z,3.30
2023-01-30T10:37:29.873Z,2.60
2023-01-30T10:38:29.863Z,2.10
2023-01-30T10:39:29.970Z,6.10
2023-01-30T10:40:29.859Z,2.60
2023-01-30T10:41:29.839Z,2.30
2023-01-30T10:42:29.822Z,3.10
2023-01-30T10:43:29.813Z,2.60
2023-01-30T10:44:29.800Z,1.60
2023-01-30T10:45:29.801Z,9.50
2023-01-30T10:46:29.797Z,3.30
2023-01-30T10:47:34.725Z,4.00
2023-01-30T10:48:42.647Z,3.40
2023-01-30T10:49:29.757Z,1.50
2023-01-30T10:50:29.746Z,1.90
2023-01-30T10:51:29.755Z,5.40
2023-01-30T10:52:29.716Z,1.40
2023-01-30T10:53:29.741Z,2.50
2023-01-30T10:54:29.687Z,3.20
2023-01-30T10:55:37.351Z,6.00
2023-01-30T10:56:29.669Z,5.70
2023-01-30T10:57:29.662Z,1.50
2023-01-30T10:58:29.661Z,6.80
2023-01-30T10:59:29.655Z,9.10
2023-01-30T11:00:29.675Z,1.50
2023-01-30T11:01:29.671Z,2.90
2023-01-30T11:02:29.795Z,1.50
2023-01-30T11:03:29.603Z,4.60
2023-01-30T11:04:29.610Z,0.70
2023-01-30T11:05:29.627Z,0.50
2023-01-30T11:06:29.563Z,3.80
2023-01-30T11:07:29.570Z,1.60
2023-01-30T11:08:29.551Z,2.90
2023-01-30T11:09:29.556Z,2.60
2023-01-30T11:10:29.530Z,5.10
2023-01-30T11:11:29.542Z,4.10
2023-01-30T11:12:29.501Z,3.50
2023-01-30T11:13:29.509Z,4.40
2023-01-30T11:14:29.472Z,7.00
2023-01-30T11:15:29.461Z,3.00
2023-01-30T11:16:29.486Z,2.80
2023-01-30T11:17:29.442Z,5.30
2023-01-30T11:19:29.420Z,7.80
2023-01-30T11:20:29.422Z,3.00
2023-01-30T11:21:43.212Z,5.00
2023-01-30T11:22:29.407Z,5.00
2023-01-30T11:23:29.377Z,3.70
2023-01-30T11:24:29.364Z,0.60
2023-01-30T11:25:29.351Z,1.20
2023-01-30T11:26:37.746Z,1.20
2023-01-30T11:27:29.348Z,2.30
2023-01-30T11:28:29.316Z,1.00
2023-01-30T11:29:29.326Z,2.90
2023-01-30T11:30:29.326Z,6.30
2023-01-30T11:31:40.901Z,5.30
2023-01-30T11:32:29.560Z,4.80
2023-01-30T11:33:29.279Z,1.00
2023-01-30T11:34:29.276Z,4.50
2023-01-30T11:35:29.260Z,2.00
2023-01-30T11:36:29.260Z,4.50
2023-01-30T11:37:29.247Z,1.30
2023-01-30T11:38:29.233Z,3.70
2023-01-30T11:39:29.222Z,1.40
2023-01-30T11:40:29.190Z,1.50
2023-01-30T11:41:29.174Z,5.00
2023-01-30T11:42:29.174Z,6.10
2023-01-30T11:43:29.162Z,4.70
2023-01-30T11:44:29.165Z,3.30
2023-01-30T11:45:29.240Z,7.50
2023-01-30T11:46:29.130Z,8.90
2023-01-30T11:47:29.125Z,6.40
2023-01-30T11:48:33.559Z,0.90
2023-01-30T11:49:45.170Z,6.70
2023-01-30T11:50:32.682Z,10.20
2023-01-30T11:51:29.091Z,2.00
2023-01-30T11:52:29.122Z,4.00
2023-01-30T11:53:29.079Z,3.40
2023-01-30T11:54:29.026Z,4.50
2023-01-30T11:55:29.050Z,6.10
2023-01-30T11:56:29.035Z,4.50
2023-01-30T11:57:29.039Z,4.00
2023-01-30T11:58:29.009Z,2.80
2023-01-30T11:59:29.002Z,2.50
2023-01-30T12:00:28.962Z,1.80
2023-01-30T12:01:28.972Z,1.10
2023-01-30T12:02:28.956Z,7.70
2023-01-30T12:03:29.047Z,6.20
2023-01-30T12:04:28.970Z,0.50
2023-01-30T12:05:28.918Z,5.00
2023-01-30T12:06:28.918Z,5.90
2023-01-30T12:07:28.930Z,1.70
2023-01-30T12:08:41.040Z,3.60
2023-01-30T12:09:28.878Z,3.90
2023-01-30T12:10:28.875Z,8.00
2023-01-30T12:11:28.868Z,4.20
2023-01-30T12:12:28.844Z,8.40
2023-01-30T12:13:28.853Z,8.60
2023-01-30T12:14:28.867Z,3.50
2023-01-30T12:15:28.818Z,2.00
2023-01-30T12:16:28.916Z,3.60
2023-01-30T12:17:28.809Z,4.40
2023-01-30T12:18:28.774Z,4.10
2023-01-30T12:19:28.788Z,5.00
2023-01-30T12:20:28.760Z,3.20
2023-01-30T12:21:28.756Z,3.50
2023-01-30T12:22:28.730Z,1.90
2023-01-30T12:23:28.726Z,7.10
2023-01-30T12:24:28.749Z,5.50
2023-01-30T12:25:28.706Z,5.30
2023-01-30T12:26:28.725Z,7.30
2023-01-30T12:27:28.687Z,5.00
2023-01-30T12:28:28.681Z,0.50
2023-01-30T12:29:28.687Z,4.70
2023-01-30T12:30:28.645Z,3.20
2023-01-30T12:31:28.664Z,2.40
2023-01-30T12:32:28.621Z,4.10
2023-01-30T12:33:28.604Z,1.40
2023-01-30T12:34:28.610Z,8.60
2023-01-30T12:35:28.643Z,1.60
2023-01-30T12:36:28.593Z,2.90
2023-01-30T12:37:28.579Z,9.60
2023-01-30T12:38:28.566Z,3.50
2023-01-30T12:39:28.562Z,3.00
2023-01-30T12:40:28.538Z,1.30
2023-01-30T12:41:28.536Z,5.50
2023-01-30T12:42:28.540Z,3.50
2023-01-30T12:43:28.520Z,1.30
2023-01-30T12:44:28.556Z,4.80
2023-01-30T12:45:28.515Z,2.30
2023-01-30T12:46:28.497Z,2.10
2023-01-30T12:47:28.460Z,3.10
2023-01-30T12:48:28.451Z,4.90
2023-01-30T12:49:28.462Z,3.40
2023-01-30T12:50:28.469Z,4.00
2023-01-30T12:51:28.426Z,0.70
2023-01-30T12:52:28.437Z,6.70
2023-01-30T12:53:28.446Z,4.40
2023-01-30T12:54:28.401Z,3.60
2023-01-30T12:55:28.391Z,3.00
2023-01-30T12:56:28.443Z,1.90
2023-01-30T12:57:28.350Z,1.40
2023-01-30T12:58:28.331Z,1.20
2023-01-30T12:59:28.345Z,11.10
2023-01-30T13:00:28.343Z,1.40
2023-01-30T13:01:28.361Z,4.10
2023-01-30T13:02:28.388Z,1.10
2023-01-30T13:03:28.348Z,2.10
2023-01-30T13:04:28.282Z,0.50
2023-01-30T13:05:28.286Z,4.60
2023-01-30T13:06:28.264Z,5.60
2023-01-30T13:07:28.241Z,0.90
2023-01-30T13:08:28.253Z,1.70
2023-01-30T13:09:28.212Z,3.20
2023-01-30T13:10:28.224Z,6.70
2023-01-30T13:11:28.236Z,2.00
2023-01-30T13:12:28.202Z,1.50
2023-01-30T13:13:28.174Z,0.30
2023-01-30T13:14:28.160Z,3.80
2023-01-30T13:15:28.156Z,3.70
2023-01-30T13:16:28.241Z,6.40
2023-01-30T13:17:28.150Z,7.90
2023-01-30T13:18:28.130Z,3.30
2023-01-30T13:19:39.252Z,1.70
2023-01-30T13:20:28.115Z,0.80
2023-01-30T13:21:28.089Z,3.10
2023-01-30T13:22:28.079Z,1.00
2023-01-30T13:23:28.074Z,3.10
2023-01-30T13:24:28.051Z,2.40
2023-01-30T13:25:28.070Z,1.90
2023-01-30T13:26:28.047Z,2.30
2023-01-30T13:27:28.106Z,3.40
2023-01-30T13:28:28.059Z,2.10
2023-01-30T13:29:28.021Z,2.80
2023-01-30T13:30:27.987Z,3.40
2023-01-30T13:31:28.061Z,1.70
2023-01-30T13:32:28.018Z,2.60
2023-01-30T13:33:27.975Z,1.80
2023-01-30T13:34:27.999Z,6.60
2023-01-30T13:35:27.970Z,2.00
2023-01-30T13:36:27.920Z,1.80
2023-01-30T13:37:27.909Z,2.30
2023-01-30T13:38:27.915Z,0.90
2023-01-30T13:39:27.916Z,9.20
2023-01-30T13:40:27.914Z,5.30
2023-01-30T13:41:27.894Z,5.60
2023-01-30T13:42:27.872Z,2.40
2023-01-30T13:43:27.858Z,2.80
2023-01-30T13:44:27.837Z,5.00
2023-01-30T13:45:27.850Z,1.10
2023-01-30T13:46:27.894Z,1.70
2023-01-30T13:47:27.806Z,2.50
2023-01-30T13:48:27.808Z,2.70
2023-01-30T13:49:27.788Z,2.40
2023-01-30T13:50:27.796Z,1.10
2023-01-30T13:51:27.790Z,3.20
2023-01-30T13:52:27.796Z,1.70
2023-01-30T13:53:27.776Z,2.80
2023-01-30T13:54:27.742Z,1.10
2023-01-30T13:55:27.772Z,2.50
2023-01-30T13:56:40.828Z,2.00
2023-01-30T13:57:27.752Z,3.00
2023-01-30T13:58:27.706Z,8.20
2023-01-30T13:59:27.704Z,4.90
2023-01-30T14:00:27.725Z,2.90
2023-01-30T14:01:27.651Z,0.40
2023-01-30T14:02:27.752Z,1.90
2023-01-30T14:03:27.636Z,2.00
2023-01-30T14:04:27.615Z,2.20
2023-01-30T14:05:37.171Z,6.20
2023-01-30T14:06:27.608Z,4.70
2023-01-30T14:07:27.602Z,4.00
2023-01-30T14:08:27.601Z,8.90
2023-01-30T14:09:27.608Z,6.30
2023-01-30T14:10:27.579Z,5.00
2023-01-30T14:11:27.544Z,1.60
2023-01-30T14:12:28.506Z,4.40
2023-01-30T14:13:27.527Z,3.10
2023-01-30T14:14:27.520Z,4.90
2023-01-30T14:15:27.504Z,0.70
2023-01-30T14:16:27.564Z,5.40
2023-01-30T14:17:27.499Z,2.30
2023-01-30T14:18:27.475Z,3.90
2023-01-30T14:19:27.481Z,2.10
2023-01-30T14:20:27.448Z,0.20
2023-01-30T14:21:27.442Z,2.00
2023-01-30T14:22:27.426Z,0.70
2023-01-30T14:23:27.415Z,1.30
2023-01-30T14:24:27.403Z,4.60
2023-01-30T14:25:27.445Z,0.60
2023-01-30T14:26:27.409Z,2.40
2023-01-30T14:27:27.420Z,0.50
2023-01-30T14:28:27.367Z,1.20
2023-01-30T14:29:27.368Z,3.50
2023-01-30T14:30:27.361Z,0.70
2023-01-30T14:31:27.471Z,1.70
2023-01-30T14:32:27.426Z,0.90
2023-01-30T14:33:27.338Z,1.10
2023-01-30T14:34:27.303Z,0.40
2023-01-30T14:35:27.301Z,0.40
2023-01-30T14:36:27.301Z,0.30
2023-01-30T14:37:27.266Z,0.20
2023-01-30T14:38:27.266Z,0.30
2023-01-30T14:39:27.261Z,0.20
2023-01-30T14:40:27.249Z,0.20
2023-01-30T14:41:27.248Z,1.30
2023-01-30T14:42:27.217Z,0.30
2023-01-30T14:43:27.206Z,0.50
2023-01-30T14:44:27.206Z,0.30
2023-01-30T14:45:27.170Z,3.50
2023-01-30T14:46:27.213Z,0.30
2023-01-30T14:47:34.203Z,0.30
2023-01-30T14:48:27.157Z,0.70
2023-01-30T14:49:27.149Z,0.20
2023-01-30T14:50:27.140Z,0.80
2023-01-30T14:51:27.136Z,1.70
2023-01-30T14:52:27.132Z,0.40
2023-01-30T14:53:27.087Z,0.40
2023-01-30T14:54:33.295Z,0.30
2023-01-30T14:55:27.081Z,0.40
2023-01-30T14:56:27.066Z,0.60
2023-01-30T14:57:27.076Z,3.70
2023-01-30T14:58:27.057Z,0.90
2023-01-30T14:59:27.023Z,0.60
2023-01-30T15:00:27.010Z,1.20
2023-01-30T15:01:27.190Z,0.40
2023-01-30T15:02:27.091Z,1.80
2023-01-30T15:03:26.988Z,0.40
2023-01-30T15:04:26.977Z,0.40
2023-01-30T15:05:27.001Z,1.10
2023-01-30T15:06:26.985Z,1.70
2023-01-30T15:07:26.951Z,0.70
2023-01-30T15:08:26.960Z,1.90
2023-01-30T15:09:26.926Z,7.90
2023-01-30T15:10:26.924Z,2.20
2023-01-30T15:11:26.887Z,1.10
2023-01-30T15:12:26.912Z,2.30
2023-01-30T15:13:26.878Z,3.90
2023-01-30T15:14:26.879Z,4.50
2023-01-30T15:15:26.859Z,0.60
2023-01-30T15:16:26.908Z,1.20
2023-01-30T15:17:26.844Z,2.40
2023-01-30T15:18:26.828Z,3.00
2023-01-30T15:19:26.808Z,0.40
2023-01-30T15:20:28.181Z,4.10
2023-01-30T15:21:26.787Z,3.60
2023-01-30T15:22:26.804Z,0.60
2023-01-30T15:23:26.762Z,2.60
2023-01-30T15:24:26.760Z,2.40
2023-01-30T15:25:26.780Z,0.70
2023-01-30T15:26:26.780Z,4.40
2023-01-30T15:27:26.757Z,1.80
2023-01-30T15:28:26.752Z,0.70
2023-01-30T15:29:26.697Z,0.50
2023-01-30T15:30:26.732Z,0.90
2023-01-30T15:31:26.801Z,0.50
2023-01-30T15:32:26.709Z,3.40
2023-01-30T15:33:31.583Z,1.40
2023-01-30T15:34:26.660Z,0.40
2023-01-30T15:35:26.747Z,0.60
2023-01-30T15:36:26.638Z,2.30
2023-01-30T15:37:26.646Z,0.90
2023-01-30T15:38:26.665Z,1.00
2023-01-30T15:39:26.648Z,1.70
2023-01-30T15:40:26.605Z,1.10
2023-01-30T15:41:26.588Z,2.10
2023-01-30T15:42:26.566Z,1.10
2023-01-30T15:43:26.562Z,0.40
2023-01-30T15:44:26.561Z,1.20
2023-01-30T15:45:26.542Z,2.90
2023-01-30T15:46:26.712Z,0.70
2023-01-30T15:47:26.516Z,4.30
2023-01-30T15:48:26.521Z,1.30
2023-01-30T15:49:26.515Z,3.20
2023-01-30T15:50:26.490Z,1.50
2023-01-30T15:51:26.469Z,0.90
2023-01-30T15:52:26.491Z,1.40
2023-01-30T15:53:26.477Z,0.70
2023-01-30T15:54:26.431Z,0.40
2023-01-30T15:55:26.421Z,1.00
2023-01-30T15:56:26.416Z,2.70
2023-01-30T15:57:26.399Z,1.70
2023-01-30T15:58:26.406Z,2.10
2023-01-30T15:59:26.437Z,2.30
2023-01-30T16:00:26.410Z,5.00
2023-01-30T16:01:26.407Z,1.10
2023-01-30T16:02:26.384Z,4.30
2023-01-30T16:03:26.333Z,1.30
2023-01-30T16:04:26.341Z,2.20
2023-01-30T16:05:26.346Z,2.10
2023-01-30T16:06:26.297Z,0.90
2023-01-30T16:07:26.322Z,3.30
2023-01-30T16:08:26.306Z,3.20
2023-01-30T16:09:26.277Z,1.90
2023-01-30T16:10:26.257Z,2.00
2023-01-30T16:11:26.254Z,3.80
2023-01-30T16:12:26.303Z,5.90
2023-01-30T16:13:26.266Z,7.30
2023-01-30T16:14:26.219Z,2.70
2023-01-30T16:15:26.211Z,0.50
2023-01-30T16:16:26.373Z,4.80
2023-01-30T16:17:26.179Z,0.30
2023-01-30T16:18:26.187Z,3.60
2023-01-30T16:19:26.190Z,4.70
2023-01-30T16:20:26.279Z,0.80
2023-01-30T16:21:26.196Z,3.50
2023-01-30T16:22:26.185Z,0.60
2023-01-30T16:23:26.160Z,1.00
2023-01-30T16:24:26.169Z,5.10
2023-01-30T16:25:26.162Z,2.80
2023-01-30T16:26:26.171Z,7.10
2023-01-30T16:27:26.130Z,0.50
2023-01-30T16:28:26.127Z,3.40
2023-01-30T16:29:26.123Z,0.50
2023-01-30T16:30:26.236Z,3.20
2023-01-30T16:31:26.277Z,4.80
2023-01-30T16:32:26.150Z,0.80
2023-01-30T16:33:26.080Z,3.20
2023-01-30T16:34:26.069Z,3.40
2023-01-30T16:35:27.533Z,0.90
2023-01-30T16:36:26.031Z,2.80
2023-01-30T16:37:26.028Z,1.60
2023-01-30T16:38:26.024Z,1.90
2023-01-30T16:39:26.077Z,2.10
2023-01-30T16:40:26.007Z,0.70
2023-01-30T16:41:25.975Z,7.20
2023-01-30T16:42:25.994Z,4.30
2023-01-30T16:43:25.967Z,5.00
2023-01-30T16:44:25.951Z,5.50
2023-01-30T16:45:25.958Z,6.10
2023-01-30T16:46:25.980Z,5.60
2023-01-30T16:47:25.931Z,7.70
2023-01-30T16:48:25.896Z,1.70
2023-01-30T16:49:25.889Z,0.50
2023-01-30T16:50:25.907Z,1.70
2023-01-30T16:51:25.875Z,6.90
2023-01-30T16:52:25.906Z,0.40
2023-01-30T16:53:25.870Z,8.30
2023-01-30T16:54:25.842Z,4.90
2023-01-30T16:55:25.840Z,1.00
2023-01-30T16:56:25.805Z,1.20
2023-01-30T16:57:25.791Z,5.60
2023-01-30T16:58:25.793Z,1.70
2023-01-30T16:59:25.781Z,3.10
2023-01-30T17:00:25.811Z,0.30
2023-01-30T17:01:25.872Z,0.90
2023-01-30T17:02:25.761Z,8.60
2023-01-30T17:03:25.761Z,1.20
2023-01-30T17:04:25.745Z,1.90
2023-01-30T17:05:25.716Z,0.30
2023-01-30T17:06:25.727Z,1.90
2023-01-30T17:07:25.741Z,3.20
2023-01-30T17:08:25.683Z,5.00
2023-01-30T17:09:25.668Z,9.50
2023-01-30T17:10:25.675Z,1.20
2023-01-30T17:11:25.641Z,3.80
2023-01-30T17:12:25.639Z,2.60
2023-01-30T17:13:27.542Z,0.50
2023-01-30T17:14:25.621Z,0.50
2023-01-30T17:15:25.635Z,8.00
2023-01-30T17:16:25.652Z,2.50
2023-01-30T17:17:25.574Z,2.00
2023-01-30T17:18:25.580Z,2.80
2023-01-30T17:19:25.578Z,1.40
2023-01-30T17:20:25.564Z,1.50
2023-01-30T17:21:25.573Z,2.60
2023-01-30T17:22:25.530Z,4.80
2023-01-30T17:23:25.566Z,5.70
2023-01-30T17:24:25.553Z,0.80
2023-01-30T17:25:25.722Z,4.40
2023-01-30T17:26:25.542Z,0.40
2023-01-30T17:27:25.479Z,0.50
2023-01-30T17:28:25.511Z,5.20
2023-01-30T17:29:41.263Z,2.10
2023-01-30T17:30:25.450Z,15.00
2023-01-30T17:31:25.581Z,9.90
2023-01-30T17:32:25.486Z,25.90
2023-01-30T17:33:25.409Z,2.80
2023-01-30T17:34:27.243Z,1.10
2023-01-30T17:35:25.445Z,6.50
2023-01-30T17:36:25.416Z,6.70
2023-01-30T17:37:25.390Z,3.40
2023-01-30T17:38:25.420Z,2.60
2023-01-30T17:39:25.352Z,2.50
2023-01-30T17:40:25.332Z,8.10
2023-01-30T17:41:25.329Z,8.20
2023-01-30T17:42:25.312Z,4.20
2023-01-30T17:43:25.315Z,0.30
2023-01-30T17:44:25.303Z,5.00
2023-01-30T17:45:25.298Z,12.10
2023-01-30T17:46:25.436Z,5.70
2023-01-30T17:47:25.273Z,4.60
2023-01-30T17:48:25.303Z,1.50
2023-01-30T17:49:25.251Z,0.60
2023-01-30T17:50:25.248Z,4.30
2023-01-30T17:51:25.241Z,0.40
2023-01-30T17:52:25.212Z,1.20
2023-01-30T17:53:25.188Z,3.40
2023-01-30T17:54:25.193Z,0.30
2023-01-30T17:55:25.176Z,1.10
2023-01-30T17:56:25.170Z,2.70
2023-01-30T17:57:25.169Z,4.30
2023-01-30T17:58:25.150Z,0.30
2023-01-30T17:59:25.134Z,1.90
2023-01-30T18:00:25.142Z,1.90
2023-01-30T18:01:25.131Z,2.80
2023-01-30T18:02:25.168Z,2.70
2023-01-30T18:03:25.123Z,6.40
2023-01-30T18:04:25.080Z,4.10
2023-01-30T18:05:25.072Z,0.40
2023-01-30T18:06:25.063Z,1.00
2023-01-30T18:07:25.077Z,0.70
2023-01-30T18:08:25.030Z,0.30
2023-01-30T18:09:25.033Z,6.30
2023-01-30T18:10:25.028Z,2.70
2023-01-30T18:11:25.003Z,3.50
2023-01-30T18:12:25.005Z,3.60
2023-01-30T18:13:24.992Z,2.30
2023-01-30T18:14:24.977Z,4.90
2023-01-30T18:15:24.945Z,5.60
2023-01-30T18:16:25.254Z,2.90